createdAt,value
2023-05-14T00:00:23.830Z,1019.67
2023-05-14T00:01:27.943Z,1019.65
2023-05-14T00:02:32.452Z,1019.66
2023-05-14T00:03:36.667Z,1019.64
2023-05-14T00:04:40.822Z,1019.64
2023-05-14T00:05:45.062Z,1019.63
2023-05-14T00:06:49.330Z,1019.62
2023-05-14T00:07:53.764Z,1019.61
2023-05-14T00:08:57.906Z,1019.61
2023-05-14T00:10:02.211Z,1019.62
2023-05-14T00:11:20.564Z,1019.62
2023-05-14T00:12:23.631Z,1019.62
2023-05-14T00:13:27.835Z,1019.61
2023-05-14T00:14:32.090Z,1019.60
2023-05-14T00:15:36.391Z,1019.59
2023-05-14T00:16:40.733Z,1019.60
2023-05-14T00:17:45.014Z,1019.61
2023-05-14T00:18:49.215Z,1019.60
2023-05-14T00:19:53.479Z,1019.62
2023-05-14T00:20:57.823Z,1019.60
2023-05-14T00:22:02.054Z,1019.59
2023-05-14T00:23:06.482Z,1019.56
2023-05-14T00:24:10.753Z,1019.56
2023-05-14T00:25:15.008Z,1019.55
2023-05-14T00:26:19.340Z,1019.56
2023-05-14T00:27:23.559Z,1019.57
2023-05-14T00:28:27.899Z,1019.56
2023-05-14T00:29:32.131Z,1019.55
2023-05-14T00:30:36.397Z,1019.53
2023-05-14T00:31:40.794Z,1019.52
2023-05-14T00:32:45.058Z,1019.49
2023-05-14T00:33:49.399Z,1019.51
2023-05-14T00:34:53.595Z,1019.54
2023-05-14T00:35:57.849Z,1019.51
2023-05-14T00:37:02.080Z,1019.52
2023-05-14T00:38:06.456Z,1019.51
2023-05-14T00:39:10.780Z,1019.50
2023-05-14T00:40:15.093Z,1019.50
2023-05-14T00:41:19.321Z,1019.47
2023-05-14T00:42:23.615Z,1019.45
2023-05-14T00:43:27.848Z,1019.44
2023-05-14T00:44:32.160Z,1019.43
2023-05-14T00:45:36.262Z,1019.43
2023-05-14T00:46:40.645Z,1019.46
2023-05-14T00:47:44.860Z,1019.46
2023-05-14T00:48:49.103Z,1019.44
2023-05-14T00:49:53.417Z,1019.44
2023-05-14T00:50:57.738Z,1019.44
2023-05-14T00:52:01.950Z,1019.46
2023-05-14T00:53:06.299Z,1019.43
2023-05-14T00:54:10.510Z,1019.42
2023-05-14T00:55:14.752Z,1019.40
2023-05-14T00:56:19.024Z,1019.40
2023-05-14T00:57:23.327Z,1019.39
2023-05-14T00:58:27.602Z,1019.38
2023-05-14T00:59:31.870Z,1019.38
2023-05-14T01:00:36.234Z,1019.37
2023-05-14T01:01:40.403Z,1019.36
2023-05-14T01:02:44.844Z,1019.33
2023-05-14T01:03:49.202Z,1019.32
2023-05-14T01:04:53.316Z,1019.31
2023-05-14T01:05:57.590Z,1019.32
2023-05-14T01:07:01.941Z,1019.30
2023-05-14T01:08:06.197Z,1019.28
2023-05-14T01:09:10.454Z,1019.32
2023-05-14T01:10:14.654Z,1019.33
2023-05-14T01:11:18.938Z,1019.30
2023-05-14T01:12:23.104Z,1019.30
2023-05-14T01:13:27.511Z,1019.29
2023-05-14T01:14:31.722Z,1019.29
2023-05-14T01:15:36.062Z,1019.28
2023-05-14T01:16:40.405Z,1019.28
2023-05-14T01:19:11.780Z,1019.25
2023-05-14T01:20:15.959Z,1019.23
2023-05-14T01:21:20.233Z,1019.23
2023-05-14T01:22:24.455Z,1019.25
2023-05-14T01:23:28.738Z,1019.22
2023-05-14T01:24:33.105Z,1019.19
2023-05-14T01:25:37.385Z,1019.20
2023-05-14T01:26:41.691Z,1019.19
2023-05-14T01:27:45.978Z,1019.19
2023-05-14T01:28:50.197Z,1019.19
2023-05-14T01:29:54.566Z,1019.19
2023-05-14T01:30:58.845Z,1019.21
2023-05-14T01:32:03.247Z,1019.23
2023-05-14T01:33:07.473Z,1019.24
2023-05-14T01:34:11.762Z,1019.26
2023-05-14T01:35:16.020Z,1019.25
2023-05-14T01:36:20.362Z,1019.26
2023-05-14T01:37:24.594Z,1019.24
2023-05-14T01:38:28.838Z,1019.24
2023-05-14T01:39:33.176Z,1019.25
2023-05-14T01:40:37.519Z,1019.22
2023-05-14T01:41:41.822Z,1019.20
2023-05-14T01:42:46.068Z,1019.21
2023-05-14T01:43:50.295Z,1019.21
2023-05-14T01:44:54.631Z,1019.21
2023-05-14T01:45:58.884Z,1019.22
2023-05-14T01:47:03.098Z,1019.22
2023-05-14T01:48:07.446Z,1019.22
2023-05-14T01:49:11.709Z,1019.23
2023-05-14T01:50:15.981Z,1019.22
2023-05-14T01:51:20.311Z,1019.21
2023-05-14T01:52:24.542Z,1019.20
2023-05-14T01:53:28.851Z,1019.23
2023-05-14T01:54:33.071Z,1019.23
2023-05-14T01:55:37.354Z,1019.24
2023-05-14T01:56:41.608Z,1019.25
2023-05-14T01:57:48.955Z,1019.20
2023-05-14T01:58:52.208Z,1019.19
2023-05-14T01:59:56.499Z,1019.18
2023-05-14T02:01:00.793Z,1019.19
2023-05-14T02:02:05.058Z,1019.20
2023-05-14T02:03:09.417Z,1019.20
2023-05-14T02:04:13.689Z,1019.20
2023-05-14T02:05:17.970Z,1019.19
2023-05-14T02:06:22.262Z,1019.16
2023-05-14T02:07:26.491Z,1019.17
2023-05-14T02:08:30.770Z,1019.18
2023-05-14T02:09:35.098Z,1019.16
2023-05-14T02:10:39.408Z,1019.16
2023-05-14T02:11:43.630Z,1019.18
2023-05-14T02:12:47.926Z,1019.15
2023-05-14T02:13:52.266Z,1019.14
2023-05-14T02:14:56.538Z,1019.13
2023-05-14T02:16:00.850Z,1019.13
2023-05-14T02:17:05.061Z,1019.10
2023-05-14T02:18:09.488Z,1019.11
2023-05-14T02:19:13.697Z,1019.10
2023-05-14T02:20:17.921Z,1019.12
2023-05-14T02:21:22.159Z,1019.10
2023-05-14T02:22:26.510Z,1019.08
2023-05-14T02:23:40.508Z,1019.08
2023-05-14T02:24:35.117Z,1019.07
2023-05-14T02:25:39.274Z,1019.09
2023-05-14T02:26:43.576Z,1019.10
2023-05-14T02:27:47.875Z,1019.07
2023-05-14T02:28:52.185Z,1019.07
2023-05-14T02:29:56.502Z,1019.06
2023-05-14T02:31:00.856Z,1019.07
2023-05-14T02:32:05.066Z,1019.06
2023-05-14T02:33:15.440Z,1019.06
2023-05-14T02:34:18.182Z,1019.04
2023-05-14T02:35:22.401Z,1019.05
2023-05-14T02:36:26.633Z,1019.03
2023-05-14T02:37:30.911Z,1019.04
2023-05-14T02:38:35.178Z,1019.01
2023-05-14T02:39:39.454Z,1019.03
2023-05-14T02:40:43.646Z,1019.02
2023-05-14T02:41:47.892Z,1019.02
2023-05-14T02:42:52.261Z,1019.01
2023-05-14T02:43:56.464Z,1019.02
2023-05-14T02:45:00.734Z,1019.01
2023-05-14T02:46:05.130Z,1019.01
2023-05-14T02:47:09.475Z,1019.01
2023-05-14T02:48:13.667Z,1019.01
2023-05-14T02:49:17.831Z,1019.03
2023-05-14T02:50:22.332Z,1019.03
2023-05-14T02:51:26.360Z,1019.03
2023-05-14T02:52:30.650Z,1019.05
2023-05-14T02:53:34.865Z,1019.07
2023-05-14T02:54:39.107Z,1019.06
2023-05-14T02:55:43.388Z,1019.04
2023-05-14T02:56:47.686Z,1019.04
2023-05-14T02:57:52.052Z,1019.04
2023-05-14T02:58:56.281Z,1019.05
2023-05-14T03:00:00.488Z,1019.01
2023-05-14T03:01:04.862Z,1019.02
2023-05-14T03:02:09.039Z,1019.02
2023-05-14T03:03:16.388Z,1019.01
2023-05-14T03:04:19.755Z,1019.00
2023-05-14T03:05:24.122Z,1018.99
2023-05-14T03:06:28.360Z,1018.99
2023-05-14T03:07:32.653Z,1018.97
2023-05-14T03:08:36.898Z,1018.97
2023-05-14T03:09:41.179Z,1018.97
2023-05-14T03:10:45.415Z,1018.96
2023-05-14T03:11:49.758Z,1018.91
2023-05-14T03:12:54.073Z,1018.90
2023-05-14T03:13:58.272Z,1018.89
2023-05-14T03:15:02.546Z,1018.88
2023-05-14T03:16:06.792Z,1018.90
2023-05-14T03:17:11.191Z,1018.88
2023-05-14T03:18:15.317Z,1018.87
2023-05-14T03:19:19.536Z,1018.84
2023-05-14T03:20:24.090Z,1018.85
2023-05-14T03:21:28.186Z,1018.85
2023-05-14T03:22:32.492Z,1018.86
2023-05-14T03:23:36.719Z,1018.87
2023-05-14T03:24:41.037Z,1018.88
2023-05-14T03:25:45.215Z,1018.89
2023-05-14T03:26:49.594Z,1018.89
2023-05-14T03:27:53.966Z,1018.89
2023-05-14T03:28:58.223Z,1018.88
2023-05-14T03:30:02.440Z,1018.88
2023-05-14T03:31:06.696Z,1018.88
2023-05-14T03:32:10.882Z,1018.89
2023-05-14T03:33:15.170Z,1018.90
2023-05-14T03:34:19.389Z,1018.93
2023-05-14T03:35:23.663Z,1018.95
2023-05-14T03:36:28.007Z,1018.95
2023-05-14T03:37:32.300Z,1018.93
2023-05-14T03:38:36.509Z,1018.94
2023-05-14T03:39:40.768Z,1018.92
2023-05-14T03:40:45.095Z,1018.93
2023-05-14T03:41:49.312Z,1018.91
2023-05-14T03:42:53.490Z,1018.92
2023-05-14T03:43:57.831Z,1018.90
2023-05-14T03:45:16.138Z,1018.91
2023-05-14T03:46:19.299Z,1018.91
2023-05-14T03:47:23.496Z,1018.88
2023-05-14T03:48:27.939Z,1018.87
2023-05-14T03:49:32.021Z,1018.84
2023-05-14T03:50:36.316Z,1018.83
2023-05-14T03:51:40.659Z,1018.83
2023-05-14T03:52:44.973Z,1018.82
2023-05-14T03:53:49.271Z,1018.81
2023-05-14T03:54:53.550Z,1018.83
2023-05-14T03:55:57.794Z,1018.82
2023-05-14T03:57:02.149Z,1018.83
2023-05-14T03:58:06.470Z,1018.82
2023-05-14T03:59:10.804Z,1018.80
2023-05-14T04:00:18.204Z,1018.80
2023-05-14T04:01:21.551Z,1018.78
2023-05-14T04:02:25.912Z,1018.77
2023-05-14T04:03:30.257Z,1018.79
2023-05-14T04:04:34.460Z,1018.78
2023-05-14T04:05:38.602Z,1018.79
2023-05-14T04:06:42.850Z,1018.78
2023-05-14T04:07:47.136Z,1018.79
2023-05-14T04:08:54.428Z,1018.77
2023-05-14T04:09:57.786Z,1018.76
2023-05-14T04:11:02.059Z,1018.75
2023-05-14T04:12:06.308Z,1018.75
2023-05-14T04:13:10.594Z,1018.75
2023-05-14T04:14:15.047Z,1018.74
2023-05-14T04:15:19.201Z,1018.71
2023-05-14T04:16:23.504Z,1018.69
2023-05-14T04:17:30.857Z,1018.67
2023-05-14T04:18:34.404Z,1018.63
2023-05-14T04:19:38.585Z,1018.63
2023-05-14T04:20:42.915Z,1018.61
2023-05-14T04:21:47.221Z,1018.61
2023-05-14T04:22:51.449Z,1018.64
2023-05-14T04:23:55.783Z,1018.62
2023-05-14T04:25:00.107Z,1018.60
2023-05-14T04:26:04.338Z,1018.59
2023-05-14T04:27:08.621Z,1018.61
2023-05-14T04:28:12.907Z,1018.61
2023-05-14T04:29:17.180Z,1018.60
2023-05-14T04:30:21.754Z,1018.63
2023-05-14T04:31:25.860Z,1018.63
2023-05-14T04:32:30.081Z,1018.62
2023-05-14T04:33:34.449Z,1018.62
2023-05-14T04:34:38.731Z,1018.64
2023-05-14T04:35:43.062Z,1018.64
2023-05-14T04:36:47.385Z,1018.62
2023-05-14T04:37:51.634Z,1018.62
2023-05-14T04:38:56.045Z,1018.65
2023-05-14T04:40:00.296Z,1018.68
2023-05-14T04:41:04.513Z,1018.71
2023-05-14T04:42:08.880Z,1018.72
2023-05-14T04:43:13.087Z,1018.73
2023-05-14T04:44:17.460Z,1018.74
2023-05-14T04:45:21.674Z,1018.76
2023-05-14T04:46:26.054Z,1018.77
2023-05-14T04:47:30.308Z,1018.74
2023-05-14T04:48:34.730Z,1018.71
2023-05-14T04:49:39.021Z,1018.68
2023-05-14T04:50:43.354Z,1018.70
2023-05-14T04:51:47.585Z,1018.66
2023-05-14T04:52:51.979Z,1018.65
2023-05-14T04:53:56.185Z,1018.68
2023-05-14T04:55:00.493Z,1018.66
2023-05-14T04:56:04.799Z,1018.65
2023-05-14T04:57:09.154Z,1018.68
2023-05-14T04:58:13.390Z,1018.69
2023-05-14T04:59:17.668Z,1018.71
2023-05-14T05:00:22.462Z,1018.71
2023-05-14T05:01:26.345Z,1018.70
2023-05-14T05:02:30.610Z,1018.74
2023-05-14T05:03:34.874Z,1018.72
2023-05-14T05:04:39.167Z,1018.70
2023-05-14T05:05:43.530Z,1018.70
2023-05-14T05:06:47.760Z,1018.67
2023-05-14T05:07:52.154Z,1018.66
2023-05-14T05:08:56.386Z,1018.70
2023-05-14T05:10:00.810Z,1018.64
2023-05-14T05:11:05.002Z,1018.65
2023-05-14T05:12:09.304Z,1018.62
2023-05-14T05:13:13.586Z,1018.63
2023-05-14T05:14:17.903Z,1018.64
2023-05-14T05:15:23.294Z,1018.57
2023-05-14T05:16:26.642Z,1018.59
2023-05-14T05:17:30.903Z,1018.59
2023-05-14T05:18:35.338Z,1018.58
2023-05-14T05:19:43.749Z,1018.55
2023-05-14T05:20:43.832Z,1018.53
2023-05-14T05:21:48.243Z,1018.55
2023-05-14T05:22:52.514Z,1018.55
2023-05-14T05:23:56.869Z,1018.57
2023-05-14T05:25:01.177Z,1018.56
2023-05-14T05:26:05.446Z,1018.56
2023-05-14T05:27:09.741Z,1018.56
2023-05-14T05:28:14.117Z,1018.53
2023-05-14T05:29:18.465Z,1018.52
2023-05-14T05:30:22.981Z,1018.51
2023-05-14T05:31:27.141Z,1018.55
2023-05-14T05:32:31.464Z,1018.53
2023-05-14T05:33:35.824Z,1018.53
2023-05-14T05:34:40.163Z,1018.52
2023-05-14T05:35:44.393Z,1018.51
2023-05-14T05:36:48.704Z,1018.52
2023-05-14T05:37:53.020Z,1018.49
2023-05-14T05:38:57.342Z,1018.50
2023-05-14T05:40:01.662Z,1018.49
2023-05-14T05:41:05.943Z,1018.49
2023-05-14T05:42:10.338Z,1018.49
2023-05-14T05:43:14.674Z,1018.47
2023-05-14T05:44:19.007Z,1018.47
2023-05-14T05:45:23.277Z,1018.46
2023-05-14T05:46:27.724Z,1018.45
2023-05-14T05:47:32.051Z,1018.47
2023-05-14T05:48:36.334Z,1018.46
2023-05-14T05:49:40.682Z,1018.45
2023-05-14T05:50:44.976Z,1018.46
2023-05-14T05:51:49.359Z,1018.46
2023-05-14T05:52:53.702Z,1018.42
2023-05-14T05:53:57.982Z,1018.43
2023-05-14T05:55:02.283Z,1018.42
2023-05-14T05:56:06.592Z,1018.44
2023-05-14T05:57:16.942Z,1018.43
2023-05-14T05:58:19.993Z,1018.43
2023-05-14T05:59:24.288Z,1018.40
2023-05-14T06:00:31.665Z,1018.42
2023-05-14T06:01:35.283Z,1018.41
2023-05-14T06:02:39.565Z,1018.40
2023-05-14T06:03:44.859Z,1018.39
2023-05-14T06:04:48.171Z,1018.39
2023-05-14T06:05:52.527Z,1018.39
2023-05-14T06:06:56.828Z,1018.41
2023-05-14T06:08:01.037Z,1018.42
2023-05-14T06:09:05.339Z,1018.48
2023-05-14T06:10:09.686Z,1018.50
2023-05-14T06:11:14.091Z,1018.50
2023-05-14T06:12:18.439Z,1018.51
2023-05-14T06:13:22.708Z,1018.50
2023-05-14T06:14:27.037Z,1018.48
2023-05-14T06:15:31.400Z,1018.48
2023-05-14T06:16:35.820Z,1018.50
2023-05-14T06:17:40.288Z,1018.50
2023-05-14T06:18:44.605Z,1018.49
2023-05-14T06:19:48.888Z,1018.46
2023-05-14T06:20:53.196Z,1018.44
2023-05-14T06:21:57.627Z,1018.41
2023-05-14T06:23:01.973Z,1018.40
2023-05-14T06:24:06.385Z,1018.38
2023-05-14T06:25:10.739Z,1018.38
2023-05-14T06:26:15.048Z,1018.37
2023-05-14T06:27:19.383Z,1018.36
2023-05-14T06:28:23.751Z,1018.34
2023-05-14T06:29:28.150Z,1018.34
2023-05-14T06:30:32.528Z,1018.33
2023-05-14T06:31:36.803Z,1018.29
2023-05-14T06:32:41.265Z,1018.32
2023-05-14T06:33:45.500Z,1018.29
2023-05-14T06:34:49.968Z,1018.28
2023-05-14T06:35:54.312Z,1018.27
2023-05-14T06:36:58.725Z,1018.26
2023-05-14T06:38:03.027Z,1018.27
2023-05-14T06:39:07.357Z,1018.26
2023-05-14T06:40:11.767Z,1018.29
2023-05-14T06:41:16.181Z,1018.30
2023-05-14T06:42:20.543Z,1018.29
2023-05-14T06:43:39.058Z,1018.32
2023-05-14T06:44:42.464Z,1018.30
2023-05-14T06:45:46.712Z,1018.31
2023-05-14T06:46:51.146Z,1018.29
2023-05-14T06:47:55.594Z,1018.29
2023-05-14T06:48:59.930Z,1018.25
2023-05-14T06:50:04.313Z,1018.27
2023-05-14T06:51:08.736Z,1018.26
2023-05-14T06:52:13.017Z,1018.23
2023-05-14T06:53:17.512Z,1018.20
2023-05-14T06:54:21.992Z,1018.19
2023-05-14T06:55:26.456Z,1018.18
2023-05-14T06:56:30.825Z,1018.16
2023-05-14T06:57:35.157Z,1018.14
2023-05-14T06:58:39.570Z,1018.17
2023-05-14T06:59:43.877Z,1018.16
2023-05-14T07:00:48.197Z,1018.18
2023-05-14T07:01:52.630Z,1018.14
2023-05-14T07:02:57.019Z,1018.15
2023-05-14T07:04:01.464Z,1018.16
2023-05-14T07:05:05.737Z,1018.13
2023-05-14T07:06:12.532Z,1018.10
2023-05-14T07:07:14.439Z,1018.07
2023-05-14T07:08:18.871Z,1018.05
2023-05-14T07:09:23.199Z,1018.02
2023-05-14T07:10:27.694Z,1018.03
2023-05-14T07:11:31.979Z,1018.00
2023-05-14T07:12:36.450Z,1017.98
2023-05-14T07:13:43.866Z,1017.95
2023-05-14T07:14:47.308Z,1017.95
2023-05-14T07:15:51.811Z,1017.95
2023-05-14T07:16:56.142Z,1017.93
2023-05-14T07:18:00.492Z,1017.93
2023-05-14T07:19:04.979Z,1017.90
2023-05-14T07:20:09.329Z,1017.82
2023-05-14T07:21:13.704Z,1017.82
2023-05-14T07:22:18.082Z,1017.81
2023-05-14T07:23:22.524Z,1017.83
2023-05-14T07:24:26.834Z,1017.77
2023-05-14T07:25:34.159Z,1017.76
2023-05-14T07:26:37.666Z,1017.77
2023-05-14T07:27:42.079Z,1017.78
2023-05-14T07:28:46.444Z,1017.79
2023-05-14T07:29:50.773Z,1017.79
2023-05-14T07:30:55.223Z,1017.78
2023-05-14T07:31:59.602Z,1017.78
2023-05-14T07:33:03.982Z,1017.78
2023-05-14T07:34:08.248Z,1017.76
2023-05-14T07:35:12.721Z,1017.72
2023-05-14T07:36:17.002Z,1017.73
2023-05-14T07:37:23.641Z,1017.72
2023-05-14T07:38:31.713Z,1017.69
2023-05-14T07:39:34.831Z,1017.71
2023-05-14T07:40:39.080Z,1017.68
2023-05-14T07:41:43.486Z,1017.65
2023-05-14T07:42:47.864Z,1017.63
2023-05-14T07:43:52.339Z,1017.64
2023-05-14T07:44:56.715Z,1017.63
2023-05-14T07:46:04.154Z,1017.60
2023-05-14T07:47:07.736Z,1017.54
2023-05-14T07:48:12.438Z,1017.55
2023-05-14T07:49:16.354Z,1017.53
2023-05-14T07:50:20.887Z,1017.51
2023-05-14T07:51:25.130Z,1017.51
2023-05-14T07:52:29.602Z,1017.50
2023-05-14T07:53:34.049Z,1017.50
2023-05-14T07:54:38.507Z,1017.51
2023-05-14T07:55:42.736Z,1017.44
2023-05-14T07:56:47.136Z,1017.48
2023-05-14T07:57:51.594Z,1017.37
2023-05-14T07:58:55.998Z,1017.37
2023-05-14T08:00:00.526Z,1017.36
2023-05-14T08:01:04.889Z,1017.40
2023-05-14T08:02:09.264Z,1017.39
2023-05-14T08:03:13.819Z,1017.35
2023-05-14T08:04:18.200Z,1017.26
2023-05-14T08:05:22.517Z,1017.26
2023-05-14T08:06:26.943Z,1017.30
2023-05-14T08:07:31.366Z,1017.27
2023-05-14T08:08:35.816Z,1017.23
2023-05-14T08:09:40.265Z,1017.18
2023-05-14T08:10:44.650Z,1017.20
2023-05-14T08:11:48.978Z,1017.12
2023-05-14T08:12:56.442Z,1017.09
2023-05-14T08:14:00.060Z,1017.15
2023-05-14T08:15:04.477Z,1017.14
2023-05-14T08:16:08.832Z,1017.11
2023-05-14T08:17:13.244Z,1017.08
2023-05-14T08:18:17.591Z,1017.14
2023-05-14T08:20:48.899Z,1017.09
2023-05-14T08:21:53.214Z,1017.04
2023-05-14T08:22:57.544Z,1017.07
2023-05-14T08:24:01.917Z,1017.03
2023-05-14T08:25:06.346Z,1016.99
2023-05-14T08:29:12.857Z,1016.94
2023-05-14T08:30:14.032Z,1016.96
2023-05-14T08:31:18.385Z,1016.95
2023-05-14T08:32:24.057Z,1016.94
2023-05-14T08:33:27.243Z,1016.93
2023-05-14T08:34:31.666Z,1016.88
2023-05-14T08:35:36.124Z,1016.85
2023-05-14T08:36:40.522Z,1016.86
2023-05-14T08:37:59.025Z,1016.82
2023-05-14T08:39:02.378Z,1016.84
2023-05-14T08:40:06.686Z,1016.86
2023-05-14T08:41:11.048Z,1016.87
2023-05-14T08:42:15.526Z,1016.84
2023-05-14T08:43:19.885Z,1016.82
2023-05-14T08:44:24.337Z,1016.81
2023-05-14T08:45:28.741Z,1016.84
2023-05-14T08:46:33.185Z,1016.81
2023-05-14T08:47:37.636Z,1016.77
2023-05-14T08:48:42.019Z,1016.75
2023-05-14T08:49:46.423Z,1016.75
2023-05-14T08:50:50.796Z,1016.68
2023-05-14T08:51:55.269Z,1016.63
2023-05-14T08:52:59.730Z,1016.64
2023-05-14T08:54:04.121Z,1016.63
2023-05-14T08:55:08.514Z,1016.69
2023-05-14T08:56:13.007Z,1016.66
2023-05-14T08:57:17.385Z,1016.69
2023-05-14T08:58:21.824Z,1016.71
2023-05-14T08:59:26.275Z,1016.71
2023-05-14T09:00:44.745Z,1016.68
2023-05-14T09:01:48.081Z,1016.72
2023-05-14T09:02:52.397Z,1016.73
2023-05-14T09:03:56.768Z,1016.75
2023-05-14T09:05:01.186Z,1016.73
2023-05-14T09:06:05.500Z,1016.68
2023-05-14T09:07:09.963Z,1016.68
2023-05-14T09:08:14.295Z,1016.67
2023-05-14T09:09:18.697Z,1016.68
2023-05-14T09:10:23.498Z,1016.67
2023-05-14T09:11:27.508Z,1016.60
2023-05-14T09:12:46.034Z,1016.62
2023-05-14T09:13:49.544Z,1016.59
2023-05-14T09:14:53.995Z,1016.44
2023-05-14T09:15:58.344Z,1016.46
2023-05-14T09:17:02.769Z,1016.52
2023-05-14T09:18:07.334Z,1016.51
2023-05-14T09:19:17.825Z,1016.49
2023-05-14T09:20:20.819Z,1016.51
2023-05-14T09:21:25.232Z,1016.50
2023-05-14T09:22:29.579Z,1016.48
2023-05-14T09:23:33.973Z,1016.49
2023-05-14T09:24:38.379Z,1016.50
2023-05-14T09:25:42.921Z,1016.48
2023-05-14T09:26:47.357Z,1016.49
2023-05-14T09:28:05.806Z,1016.47
2023-05-14T09:29:23.260Z,1016.34
2023-05-14T09:30:40.683Z,1016.42
2023-05-14T09:31:44.134Z,1016.38
2023-05-14T09:32:48.376Z,1016.38
2023-05-14T09:33:52.863Z,1016.36
2023-05-14T09:34:57.269Z,1016.26
2023-05-14T09:36:01.760Z,1016.25
2023-05-14T09:37:06.182Z,1016.29
2023-05-14T09:38:10.631Z,1016.28
2023-05-14T09:39:15.069Z,1016.30
2023-05-14T09:40:22.673Z,1016.29
2023-05-14T09:41:26.065Z,1016.15
2023-05-14T09:42:30.390Z,1016.10
2023-05-14T09:43:34.798Z,1016.16
2023-05-14T09:44:39.274Z,1016.09
2023-05-14T09:45:57.807Z,1016.08
2023-05-14T09:47:01.183Z,1016.12
2023-05-14T09:48:05.584Z,1016.06
2023-05-14T09:49:09.824Z,1016.04
2023-05-14T09:50:14.435Z,1016.06
2023-05-14T09:51:18.797Z,1016.09
2023-05-14T09:52:23.379Z,1016.05
2023-05-14T09:53:27.679Z,1016.04
2023-05-14T09:54:32.084Z,1016.04
2023-05-14T09:55:36.548Z,1015.99
2023-05-14T09:56:55.837Z,1016.01
2023-05-14T09:57:58.320Z,1016.02
2023-05-14T09:59:02.635Z,1016.01
2023-05-14T10:00:07.093Z,1015.96
2023-05-14T10:01:11.584Z,1015.94
2023-05-14T10:02:15.945Z,1015.92
2023-05-14T10:03:20.441Z,1015.90
2023-05-14T10:04:24.814Z,1015.86
2023-05-14T10:05:29.145Z,1015.85
2023-05-14T10:06:33.630Z,1015.86
2023-05-14T10:07:38.109Z,1015.84
2023-05-14T10:08:42.581Z,1015.88
2023-05-14T10:09:47.030Z,1015.78
2023-05-14T10:10:57.484Z,1015.77
2023-05-14T10:12:00.626Z,1015.75
2023-05-14T10:13:04.952Z,1015.69
2023-05-14T10:14:09.434Z,1015.66
2023-05-14T10:15:13.893Z,1015.67
2023-05-14T10:16:18.319Z,1015.70
2023-05-14T10:17:22.700Z,1015.67
2023-05-14T10:18:27.158Z,1015.71
2023-05-14T10:19:45.610Z,1015.67
2023-05-14T10:20:49.135Z,1015.69
2023-05-14T10:21:53.427Z,1015.66
2023-05-14T10:22:57.828Z,1015.67
2023-05-14T10:24:16.347Z,1015.61
2023-05-14T10:25:19.725Z,1015.65
2023-05-14T10:26:30.130Z,1015.63
2023-05-14T10:27:33.113Z,1015.58
2023-05-14T10:28:37.557Z,1015.64
2023-05-14T10:29:41.991Z,1015.62
2023-05-14T10:31:00.504Z,1015.60
2023-05-14T10:32:03.587Z,1015.58
2023-05-14T10:33:07.989Z,1015.63
2023-05-14T10:34:12.364Z,1015.58
2023-05-14T10:35:16.701Z,1015.62
2023-05-14T10:36:21.167Z,1015.62
2023-05-14T10:37:25.710Z,1015.57
2023-05-14T10:38:30.121Z,1015.63
2023-05-14T10:39:34.551Z,1015.62
2023-05-14T10:40:38.999Z,1015.62
2023-05-14T10:41:43.414Z,1015.63
2023-05-14T10:42:47.997Z,1015.60
2023-05-14T10:43:52.293Z,1015.63
2023-05-14T10:44:56.722Z,1015.58
2023-05-14T10:46:01.188Z,1015.53
2023-05-14T10:47:05.886Z,1015.58
2023-05-14T10:48:10.007Z,1015.54
2023-05-14T10:49:14.433Z,1015.59
2023-05-14T10:50:18.889Z,1015.62
2023-05-14T10:51:23.398Z,1015.58
2023-05-14T10:52:27.779Z,1015.48
2023-05-14T10:53:32.152Z,1015.48
2023-05-14T10:54:50.707Z,1015.48
2023-05-14T10:55:54.181Z,1015.44
2023-05-14T10:56:58.606Z,1015.47
2023-05-14T10:58:03.046Z,1015.46
2023-05-14T10:59:07.437Z,1015.47
2023-05-14T11:00:11.912Z,1015.47
2023-05-14T11:01:19.344Z,1015.49
2023-05-14T11:02:37.004Z,1015.44
2023-05-14T11:03:40.352Z,1015.47
2023-05-14T11:04:44.588Z,1015.46
2023-05-14T11:05:49.097Z,1015.49
2023-05-14T11:06:53.477Z,1015.48
2023-05-14T11:07:57.874Z,1015.44
2023-05-14T11:09:02.254Z,1015.44
2023-05-14T11:10:06.768Z,1015.51
2023-05-14T11:11:11.123Z,1015.48
2023-05-14T11:12:15.509Z,1015.46
2023-05-14T11:13:23.016Z,1015.47
2023-05-14T11:14:26.514Z,1015.45
2023-05-14T11:15:30.981Z,1015.45
2023-05-14T11:16:35.460Z,1015.42
2023-05-14T11:17:39.879Z,1015.45
2023-05-14T11:18:44.354Z,1015.43
2023-05-14T11:19:51.089Z,1015.42
2023-05-14T11:20:53.072Z,1015.42
2023-05-14T11:21:57.452Z,1015.43
2023-05-14T11:23:01.913Z,1015.38
2023-05-14T11:24:06.355Z,1015.38
2023-05-14T11:25:10.700Z,1015.38
2023-05-14T11:26:29.241Z,1015.37
2023-05-14T11:27:33.542Z,1015.36
2023-05-14T11:28:37.545Z,1015.33
2023-05-14T11:29:42.011Z,1015.31
2023-05-14T11:30:46.406Z,1015.31
2023-05-14T11:31:50.814Z,1015.32
2023-05-14T11:32:55.172Z,1015.31
2023-05-14T11:33:59.605Z,1015.34
2023-05-14T11:35:03.948Z,1015.27
2023-05-14T11:36:08.564Z,1015.25
2023-05-14T11:37:12.974Z,1015.27
2023-05-14T11:38:17.328Z,1015.29
2023-05-14T11:39:21.809Z,1015.32
2023-05-14T11:40:26.404Z,1015.29
2023-05-14T11:41:30.686Z,1015.28
2023-05-14T11:42:35.146Z,1015.27
2023-05-14T11:43:39.561Z,1015.23
2023-05-14T11:44:43.912Z,1015.25
2023-05-14T11:45:48.325Z,1015.25
2023-05-14T11:46:52.681Z,1015.29
2023-05-14T11:47:57.081Z,1015.28
2023-05-14T11:49:15.527Z,1015.29
2023-05-14T11:50:18.832Z,1015.29
2023-05-14T11:51:23.284Z,1015.31
2023-05-14T11:52:27.577Z,1015.31
2023-05-14T11:53:32.035Z,1015.32
2023-05-14T11:54:36.408Z,1015.31
2023-05-14T11:55:40.785Z,1015.29
2023-05-14T11:56:45.125Z,1015.31
2023-05-14T11:57:49.669Z,1015.28
2023-05-14T11:58:53.983Z,1015.27
2023-05-14T11:59:58.357Z,1015.33
2023-05-14T12:01:02.720Z,1015.37
2023-05-14T12:02:07.252Z,1015.42
2023-05-14T12:03:11.858Z,1015.55
2023-05-14T12:04:16.164Z,1015.66
2023-05-14T12:05:20.503Z,1015.75
2023-05-14T12:06:24.918Z,1015.85
2023-05-14T12:07:29.307Z,1015.86
2023-05-14T12:08:33.798Z,1015.91
2023-05-14T12:09:38.184Z,1015.91
2023-05-14T12:10:42.648Z,1015.89
2023-05-14T12:11:46.988Z,1015.88
2023-05-14T12:12:51.460Z,1015.89
2023-05-14T12:13:55.763Z,1015.87
2023-05-14T12:15:00.197Z,1015.83
2023-05-14T12:16:04.600Z,1015.81
2023-05-14T12:17:15.077Z,1015.77
2023-05-14T12:18:24.744Z,1015.77
2023-05-14T12:19:22.619Z,1015.78
2023-05-14T12:20:26.901Z,1015.77
2023-05-14T12:21:31.263Z,1015.75
2023-05-14T12:22:37.068Z,1015.74
2023-05-14T12:23:40.249Z,1015.72
2023-05-14T12:24:44.679Z,1015.70
2023-05-14T12:25:49.000Z,1015.70
2023-05-14T12:27:07.639Z,1015.69
2023-05-14T12:28:10.512Z,1015.65
2023-05-14T12:29:14.853Z,1015.65
2023-05-14T12:30:21.261Z,1015.59
2023-05-14T12:31:23.648Z,1015.56
2023-05-14T12:32:34.141Z,1015.52
2023-05-14T12:33:37.182Z,1015.51
2023-05-14T12:34:41.461Z,1015.50
2023-05-14T12:35:45.847Z,1015.51
2023-05-14T12:36:50.265Z,1015.51
2023-05-14T12:37:54.558Z,1015.51
2023-05-14T12:39:05.020Z,1015.50
2023-05-14T12:40:08.110Z,1015.50
2023-05-14T12:41:12.523Z,1015.51
2023-05-14T12:42:16.900Z,1015.47
2023-05-14T12:43:21.285Z,1015.47
2023-05-14T12:44:25.655Z,1015.43
2023-05-14T12:45:30.138Z,1015.40
2023-05-14T12:46:34.666Z,1015.37
2023-05-14T12:47:38.893Z,1015.34
2023-05-14T12:48:43.364Z,1015.33
2023-05-14T12:49:47.712Z,1015.29
2023-05-14T12:50:52.096Z,1015.26
2023-05-14T12:52:04.476Z,1015.22
2023-05-14T12:53:00.995Z,1015.19
2023-05-14T12:54:05.435Z,1015.19
2023-05-14T12:55:11.994Z,1015.18
2023-05-14T12:56:14.155Z,1015.19
2023-05-14T12:57:18.569Z,1015.19
2023-05-14T12:58:22.935Z,1015.18
2023-05-14T12:59:27.422Z,1015.16
2023-05-14T13:00:31.792Z,1015.15
2023-05-14T13:01:36.217Z,1015.15
2023-05-14T13:02:42.240Z,1015.12
2023-05-14T13:03:59.136Z,1015.08
2023-05-14T13:05:02.332Z,1015.04
2023-05-14T13:06:06.880Z,1015.01
2023-05-14T13:07:11.120Z,1014.99
2023-05-14T13:08:15.579Z,1014.95
2023-05-14T13:09:19.979Z,1014.94